createdAt,value
2023-02-15T00:01:10.702Z,35.75
2023-02-15T00:03:37.231Z,34.33
2023-02-15T00:06:04.526Z,34.38
2023-02-15T00:08:31.167Z,32.40
2023-02-15T00:11:15.956Z,34.95
2023-02-15T00:13:42.838Z,50.63
2023-02-15T00:16:12.383Z,44.45
2023-02-15T00:18:40.329Z,31.48
2023-02-15T00:21:09.512Z,34.27
2023-02-15T00:23:36.593Z,34.70
2023-02-15T00:26:11.631Z,34.65
2023-02-15T00:28:38.528Z,34.65
2023-02-15T00:31:10.328Z,31.38
2023-02-15T00:33:37.885Z,31.93
2023-02-15T00:36:06.882Z,34.70
2023-02-15T00:38:34.086Z,29.10
2023-02-15T00:41:02.693Z,28.50
2023-02-15T00:43:31.090Z,26.35
2023-02-15T00:45:58.007Z,24.07
2023-02-15T00:48:24.690Z,25.17
2023-02-15T00:50:54.193Z,23.63
2023-02-15T00:53:21.425Z,22.58
2023-02-15T00:55:48.516Z,25.27
2023-02-15T00:58:15.933Z,26.63
2023-02-15T01:00:44.805Z,23.38
2023-02-15T01:03:12.573Z,26.75
2023-02-15T01:05:39.488Z,29.25
2023-02-15T01:08:06.322Z,38.88
2023-02-15T01:10:34.965Z,30.33
2023-02-15T01:13:01.676Z,37.53
2023-02-15T01:15:28.340Z,34.38
2023-02-15T01:17:54.879Z,28.98
2023-02-15T01:20:24.863Z,33.95
2023-02-15T01:22:52.239Z,32.80
2023-02-15T01:25:20.568Z,30.30
2023-02-15T01:27:47.273Z,36.50
2023-02-15T01:30:15.411Z,29.70
2023-02-15T01:32:43.231Z,26.33
2023-02-15T01:35:10.430Z,25.97
2023-02-15T01:37:37.588Z,27.42
2023-02-15T01:40:06.388Z,28.63
2023-02-15T01:42:32.739Z,32.55
2023-02-15T01:45:03.911Z,33.67
2023-02-15T01:47:46.539Z,36.10
2023-02-15T01:50:27.894Z,40.08
2023-02-15T01:53:03.266Z,35.20
2023-02-15T01:55:37.598Z,36.67
2023-02-15T01:58:04.047Z,41.10
2023-02-15T02:00:30.938Z,36.80
2023-02-15T02:02:58.593Z,34.22
2023-02-15T02:05:25.895Z,36.28
2023-02-15T02:07:54.146Z,33.67
2023-02-15T02:10:24.074Z,43.55
2023-02-15T02:12:55.624Z,34.40
2023-02-15T02:15:29.301Z,41.70
2023-02-15T02:18:04.050Z,44.35
2023-02-15T02:21:12.850Z,42.22
2023-02-15T02:23:59.026Z,40.38
2023-02-15T02:26:58.125Z,33.17
2023-02-15T02:29:46.973Z,39.50
2023-02-15T02:32:31.868Z,38.47
2023-02-15T02:35:25.047Z,38.53
2023-02-15T02:38:07.828Z,32.78
2023-02-15T02:40:59.289Z,32.57
2023-02-15T02:43:43.655Z,34.22
2023-02-15T02:46:21.424Z,33.03
2023-02-15T02:48:49.893Z,33.50
2023-02-15T02:51:22.227Z,29.73
2023-02-15T02:53:54.057Z,27.87
2023-02-15T02:56:29.928Z,35.45
2023-02-15T02:59:12.689Z,41.20
2023-02-15T03:01:45.738Z,41.70
2023-02-15T03:04:23.619Z,37.92
2023-02-15T03:06:59.101Z,37.03
2023-02-15T03:09:44.564Z,33.67
2023-02-15T03:12:30.706Z,28.35
2023-02-15T03:15:10.485Z,30.65
2023-02-15T03:17:42.000Z,29.48
2023-02-15T03:20:21.524Z,31.73
2023-02-15T03:22:55.940Z,27.95
2023-02-15T03:25:31.640Z,30.38
2023-02-15T03:28:06.280Z,31.58
2023-02-15T03:30:35.671Z,38.85
2023-02-15T03:33:05.440Z,39.63
2023-02-15T03:35:39.326Z,39.92
2023-02-15T03:38:08.352Z,40.35
2023-02-15T03:41:00.742Z,38.75
2023-02-15T03:43:59.394Z,37.72
2023-02-15T03:46:47.169Z,38.27
2023-02-15T03:49:23.572Z,38.95
2023-02-15T03:51:53.076Z,38.55
2023-02-15T03:54:45.667Z,40.33
2023-02-15T03:57:38.863Z,42.35
2023-02-15T04:00:33.890Z,41.53
2023-02-15T04:03:11.107Z,41.47
2023-02-15T04:05:37.886Z,43.28
2023-02-15T04:08:05.009Z,39.63
2023-02-15T04:10:49.963Z,38.63
2023-02-15T04:13:16.328Z,41.97
2023-02-15T04:16:01.535Z,43.42
2023-02-15T04:18:46.629Z,40.35
2023-02-15T04:21:31.377Z,40.58
2023-02-15T04:24:16.132Z,42.38
2023-02-15T04:26:42.515Z,41.40
2023-02-15T04:29:08.882Z,41.42
2023-02-15T04:31:35.326Z,45.42
2023-02-15T04:34:01.775Z,44.72
2023-02-15T04:36:28.256Z,44.75
2023-02-15T04:38:54.592Z,44.93
2023-02-15T04:41:20.968Z,44.70
2023-02-15T04:43:47.330Z,42.33
2023-02-15T04:46:13.753Z,42.75
2023-02-15T04:48:40.141Z,44.05
2023-02-15T04:51:10.346Z,43.60
2023-02-15T04:53:36.913Z,42.20
2023-02-15T04:58:54.197Z,41.60
2023-02-15T05:01:20.629Z,42.50
2023-02-15T05:03:47.313Z,41.17
2023-02-15T05:06:13.743Z,41.72
2023-02-15T05:08:40.148Z,41.55
2023-02-15T05:11:06.518Z,41.70
2023-02-15T05:13:32.877Z,41.67
2023-02-15T05:15:59.414Z,41.63
2023-02-15T05:18:25.977Z,40.88
2023-02-15T05:20:52.367Z,40.55
2023-02-15T05:23:18.792Z,42.50
2023-02-15T05:26:10.210Z,41.17
2023-02-15T05:28:38.227Z,38.53
2023-02-15T05:31:23.124Z,38.67
2023-02-15T05:33:49.735Z,40.95
2023-02-15T05:36:16.225Z,40.83
2023-02-15T05:38:42.593Z,42.03
2023-02-15T05:41:11.102Z,38.97
2023-02-15T05:43:38.370Z,41.75
2023-02-15T05:46:06.005Z,40.95
2023-02-15T05:48:33.281Z,46.55
2023-02-15T05:51:08.679Z,39.72
2023-02-15T05:53:37.668Z,42.70
2023-02-15T05:56:05.699Z,42.28
2023-02-15T05:58:35.389Z,38.58
2023-02-15T06:01:12.393Z,49.08
2023-02-15T06:03:39.188Z,44.47
2023-02-15T06:06:06.113Z,47.57
2023-02-15T06:08:33.584Z,49.03
2023-02-15T06:11:00.166Z,48.58
2023-02-15T06:13:27.755Z,47.35
2023-02-15T06:15:54.179Z,47.95
2023-02-15T06:18:20.528Z,47.33
2023-02-15T06:20:47.706Z,45.20
2023-02-15T06:23:14.655Z,46.97
2023-02-15T06:25:41.093Z,45.28
2023-02-15T06:28:07.677Z,43.78
2023-02-15T06:30:34.289Z,43.13
2023-02-15T06:33:00.639Z,43.28
2023-02-15T06:35:27.004Z,41.10
2023-02-15T06:37:53.366Z,41.92
2023-02-15T06:40:19.928Z,40.42
2023-02-15T06:42:46.834Z,42.17
2023-02-15T06:45:13.252Z,39.65
2023-02-15T06:47:39.773Z,40.80
2023-02-15T06:50:07.490Z,39.33
2023-02-15T06:52:34.065Z,39.25
2023-02-15T06:55:00.453Z,38.50
2023-02-15T06:57:26.845Z,38.55
2023-02-15T06:59:53.812Z,39.85
2023-02-15T07:02:20.170Z,39.72
2023-02-15T07:04:46.580Z,37.67
2023-02-15T07:07:13.516Z,37.97
2023-02-15T07:09:40.272Z,38.00
2023-02-15T07:12:25.765Z,38.58
2023-02-15T07:14:52.529Z,37.13
2023-02-15T07:17:35.111Z,37.88
2023-02-15T07:20:06.986Z,36.40
2023-02-15T07:22:34.958Z,35.85
2023-02-15T07:25:01.476Z,36.63
2023-02-15T07:27:27.884Z,35.83
2023-02-15T07:29:54.297Z,35.30
2023-02-15T07:32:20.702Z,36.17
2023-02-15T07:34:47.109Z,34.78
2023-02-15T07:37:13.482Z,33.95
2023-02-15T07:39:39.821Z,34.60
2023-02-15T07:42:06.213Z,32.92
2023-02-15T07:44:32.614Z,33.00
2023-02-15T07:46:58.976Z,32.72
2023-02-15T07:49:25.363Z,32.53
2023-02-15T07:51:51.741Z,33.83
2023-02-15T07:54:18.186Z,34.20
2023-02-15T07:56:44.713Z,33.97
2023-02-15T07:59:11.114Z,37.53
2023-02-15T08:01:39.285Z,33.78
2023-02-15T08:04:08.459Z,32.08
2023-02-15T08:06:36.680Z,34.00
2023-02-15T08:09:08.185Z,32.47
2023-02-15T08:11:40.700Z,32.92
2023-02-15T08:14:15.852Z,32.05
2023-02-15T08:16:53.394Z,32.20
2023-02-15T08:19:25.473Z,33.72
2023-02-15T08:22:00.442Z,32.57
2023-02-15T08:24:29.257Z,30.15
2023-02-15T08:26:56.125Z,28.27
2023-02-15T08:29:24.712Z,29.10
2023-02-15T08:31:54.307Z,27.92
2023-02-15T08:34:21.912Z,25.27
2023-02-15T08:36:48.536Z,24.77
2023-02-15T08:39:16.040Z,23.25
2023-02-15T08:41:45.108Z,22.48
2023-02-15T08:44:11.904Z,22.55
2023-02-15T08:46:40.570Z,21.43
2023-02-15T08:49:07.515Z,22.25
2023-02-15T08:51:36.445Z,23.40
2023-02-15T08:54:06.378Z,22.30
2023-02-15T08:56:35.119Z,22.17
2023-02-15T08:59:02.001Z,21.20
2023-02-15T09:01:30.714Z,22.15
2023-02-15T09:04:02.575Z,21.35
2023-02-15T09:06:29.913Z,21.73
2023-02-15T09:08:57.410Z,21.55
2023-02-15T09:11:29.172Z,21.67
2023-02-15T09:14:00.968Z,21.02
2023-02-15T09:16:30.192Z,21.88
2023-02-15T09:18:58.491Z,21.58
2023-02-15T09:21:26.770Z,20.83
2023-02-15T09:23:58.150Z,20.67
2023-02-15T09:26:25.487Z,21.65
2023-02-15T09:28:56.476Z,21.38
2023-02-15T09:31:26.465Z,21.55
2023-02-15T09:33:53.918Z,20.83
2023-02-15T09:36:22.488Z,22.23
2023-02-15T09:38:55.592Z,21.08
2023-02-15T09:41:40.822Z,22.92
2023-02-15T09:44:26.469Z,21.88
2023-02-15T09:47:11.332Z,22.30
2023-02-15T09:50:06.809Z,22.43
2023-02-15T09:52:50.927Z,21.50
2023-02-15T09:55:54.784Z,25.83
2023-02-15T09:58:32.956Z,21.00
2023-02-15T10:01:25.885Z,21.30
2023-02-15T10:04:13.288Z,21.20
2023-02-15T10:06:48.177Z,21.67
2023-02-15T10:09:33.362Z,21.00
2023-02-15T10:12:31.014Z,22.48
2023-02-15T10:15:15.747Z,21.67
2023-02-15T10:18:15.405Z,22.50
2023-02-15T10:20:51.023Z,21.80
2023-02-15T10:23:33.623Z,21.67
2023-02-15T10:26:12.371Z,22.38
2023-02-15T10:28:47.600Z,22.88
2023-02-15T10:31:49.561Z,22.03
2023-02-15T10:34:36.745Z,22.75
2023-02-15T10:37:09.073Z,22.30
2023-02-15T10:40:15.848Z,23.33
2023-02-15T10:43:11.906Z,22.60
2023-02-15T10:45:57.673Z,22.60
2023-02-15T10:49:07.864Z,22.48
2023-02-15T10:51:58.367Z,23.42
2023-02-15T10:54:51.003Z,23.45
2023-02-15T10:57:51.504Z,23.17
2023-02-15T11:00:45.447Z,23.40
2023-02-15T11:03:43.974Z,23.92
2023-02-15T11:06:18.132Z,22.98
2023-02-15T11:08:49.557Z,24.33
2023-02-15T11:11:44.573Z,23.45
2023-02-15T11:14:36.220Z,24.47
2023-02-15T11:17:10.795Z,24.50
2023-02-15T11:19:46.400Z,25.13
2023-02-15T11:22:13.705Z,24.55
2023-02-15T11:24:47.483Z,24.85
2023-02-15T11:27:19.465Z,24.03
2023-02-15T11:30:01.612Z,24.25
2023-02-15T11:32:34.156Z,23.60
2023-02-15T11:35:11.383Z,24.40
2023-02-15T11:37:51.335Z,24.50
2023-02-15T11:40:25.675Z,23.63
2023-02-15T11:42:57.303Z,23.70
2023-02-15T11:45:32.312Z,24.13
2023-02-15T11:48:00.262Z,22.98
2023-02-15T11:50:29.587Z,23.45
2023-02-15T11:53:18.031Z,23.83
2023-02-15T11:55:46.510Z,22.23
2023-02-15T11:58:26.635Z,24.23
2023-02-15T12:01:03.217Z,22.77
2023-02-15T12:03:59.351Z,22.77
2023-02-15T12:06:33.631Z,23.00
2023-02-15T12:09:21.428Z,23.30
2023-02-15T12:11:49.544Z,22.48
2023-02-15T12:14:18.635Z,23.25
2023-02-15T12:16:48.042Z,23.88
2023-02-15T12:19:29.553Z,23.90
2023-02-15T12:21:57.733Z,22.15
2023-02-15T12:24:31.688Z,22.70
2023-02-15T12:27:04.877Z,23.23
2023-02-15T12:29:51.768Z,22.98
2023-02-15T12:32:31.298Z,21.63
2023-02-15T12:35:16.954Z,23.58
2023-02-15T12:37:55.957Z,22.50
2023-02-15T12:40:27.114Z,23.42
2023-02-15T12:42:53.587Z,24.40
2023-02-15T12:45:33.801Z,23.53
2023-02-15T12:48:15.232Z,24.30
2023-02-15T12:50:43.128Z,24.10
2023-02-15T12:53:19.974Z,23.67
2023-02-15T12:55:56.894Z,23.35
2023-02-15T12:58:31.738Z,23.87
2023-02-15T13:01:04.712Z,23.92
2023-02-15T13:03:31.420Z,23.48
2023-02-15T13:05:59.181Z,24.15
2023-02-15T13:08:32.633Z,24.00
2023-02-15T13:11:12.207Z,24.10
2023-02-15T13:13:59.925Z,24.15
2023-02-15T13:16:39.766Z,23.40
2023-02-15T13:19:24.248Z,23.58
2023-02-15T13:21:53.827Z,23.85
2023-02-15T13:24:26.699Z,24.70
2023-02-15T13:27:09.404Z,24.00
2023-02-15T13:29:45.514Z,22.85
2023-02-15T13:32:27.544Z,23.27
2023-02-15T13:34:59.009Z,24.10
2023-02-15T13:38:01.772Z,23.73
2023-02-15T13:40:51.235Z,23.20
2023-02-15T13:43:40.866Z,22.52
2023-02-15T13:46:36.007Z,21.48
2023-02-15T13:49:19.890Z,21.50
2023-02-15T13:52:23.974Z,21.87
2023-02-15T13:55:23.426Z,22.25
2023-02-15T13:58:15.209Z,23.42
2023-02-15T14:00:53.850Z,23.73
2023-02-15T14:03:50.244Z,22.17
2023-02-15T14:06:35.914Z,22.43
2023-02-15T14:09:31.879Z,21.73
2023-02-15T14:12:24.131Z,22.33
2023-02-15T14:15:29.337Z,22.75
2023-02-15T14:18:26.480Z,23.95
2023-02-15T14:21:09.967Z,22.43
2023-02-15T14:23:56.514Z,22.70
2023-02-15T14:27:08.998Z,22.40
2023-02-15T14:29:53.181Z,21.65
2023-02-15T14:32:42.971Z,22.45
2023-02-15T14:35:16.036Z,21.73
2023-02-15T14:37:45.411Z,22.30
2023-02-15T14:40:48.430Z,22.58
2023-02-15T14:43:34.900Z,23.13
2023-02-15T14:46:12.733Z,22.95
2023-02-15T14:48:48.880Z,23.20
2023-02-15T14:51:50.443Z,23.73
2023-02-15T14:54:16.777Z,23.35
2023-02-15T14:56:45.196Z,22.75
2023-02-15T14:59:17.186Z,23.55
2023-02-15T15:01:53.670Z,23.27
2023-02-15T15:04:30.052Z,22.55
2023-02-15T15:07:21.254Z,23.27
2023-02-15T15:10:00.762Z,23.80
2023-02-15T15:12:27.083Z,23.73
2023-02-15T15:14:55.069Z,23.97
2023-02-15T15:17:33.593Z,23.13
2023-02-15T15:20:14.452Z,23.15
2023-02-15T15:22:42.886Z,23.30
2023-02-15T15:25:43.430Z,22.67
2023-02-15T15:28:09.828Z,22.37
2023-02-15T15:30:36.200Z,22.80
2023-02-15T15:33:39.896Z,21.90
2023-02-15T15:36:44.047Z,22.17
2023-02-15T15:39:38.257Z,21.83
2023-02-15T15:42:34.536Z,22.30
2023-02-15T15:45:31.337Z,22.38
2023-02-15T15:48:34.255Z,21.30
2023-02-15T15:51:05.328Z,22.35
2023-02-15T15:53:40.896Z,22.92
2023-02-15T15:56:13.176Z,23.70
2023-02-15T15:58:45.770Z,23.35
2023-02-15T16:01:14.660Z,23.70
2023-02-15T16:03:53.123Z,21.45
2023-02-15T16:06:37.369Z,22.23
2023-02-15T16:09:14.087Z,22.47
2023-02-15T16:11:42.396Z,23.50
2023-02-15T16:14:15.874Z,23.60
2023-02-15T16:16:49.064Z,22.73
2023-02-15T16:19:22.757Z,20.98
2023-02-15T16:21:49.938Z,21.00
2023-02-15T16:24:25.995Z,20.58
2023-02-15T16:27:11.544Z,21.27
2023-02-15T16:29:37.932Z,20.92
2023-02-15T16:32:16.561Z,21.40
2023-02-15T16:34:56.462Z,20.33
2023-02-15T16:37:27.870Z,20.10
2023-02-15T16:39:57.414Z,20.30
2023-02-15T16:42:25.080Z,20.85
2023-02-15T16:45:13.288Z,21.10
2023-02-15T16:47:47.903Z,20.87
2023-02-15T16:50:20.907Z,20.77
2023-02-15T16:52:47.496Z,22.25
2023-02-15T16:55:26.058Z,21.08
2023-02-15T16:57:58.049Z,21.92
2023-02-15T17:00:29.185Z,22.07
2023-02-15T17:03:04.537Z,21.13
2023-02-15T17:05:48.916Z,20.98
2023-02-15T17:08:42.246Z,21.42
2023-02-15T17:11:34.356Z,22.65
2023-02-15T17:14:07.517Z,21.87
2023-02-15T17:16:37.279Z,24.25
2023-02-15T17:19:14.085Z,25.50
2023-02-15T17:21:43.745Z,25.05
2023-02-15T17:24:18.679Z,23.08
2023-02-15T17:26:52.348Z,20.97
2023-02-15T17:29:29.527Z,19.88
2023-02-15T17:32:01.604Z,21.85
2023-02-15T17:34:48.362Z,21.83
2023-02-15T17:37:26.177Z,21.95
2023-02-15T17:39:53.192Z,22.43
2023-02-15T17:42:19.696Z,22.25
2023-02-15T17:44:46.159Z,21.17
2023-02-15T17:47:22.011Z,20.20
2023-02-15T17:49:52.363Z,20.45
2023-02-15T17:52:18.899Z,20.43
2023-02-15T17:55:04.231Z,19.98
2023-02-15T17:57:31.303Z,19.98
2023-02-15T18:00:16.819Z,20.02
2023-02-15T18:03:02.589Z,20.88
2023-02-15T18:05:47.431Z,20.77
2023-02-15T18:08:34.805Z,19.75
2023-02-15T18:11:20.267Z,20.42
2023-02-15T18:13:46.853Z,20.35
2023-02-15T18:16:15.446Z,21.10
2023-02-15T18:18:43.397Z,20.23
2023-02-15T18:21:12.143Z,21.58
2023-02-15T18:23:39.787Z,20.95
2023-02-15T18:26:06.865Z,21.45
2023-02-15T18:28:33.305Z,20.88
2023-02-15T18:31:00.631Z,21.77
2023-02-15T18:33:40.308Z,22.38
2023-02-15T18:36:13.353Z,21.80
2023-02-15T18:38:39.865Z,21.52
2023-02-15T18:41:06.363Z,21.77
2023-02-15T18:43:32.701Z,22.20
2023-02-15T18:45:59.200Z,22.38
2023-02-15T18:48:25.581Z,22.85
2023-02-15T18:50:52.012Z,21.20
2023-02-15T18:53:21.061Z,21.00
2023-02-15T18:55:49.671Z,21.63
2023-02-15T18:58:19.461Z,22.40
2023-02-15T19:00:46.578Z,23.20
2023-02-15T19:03:14.971Z,22.63
2023-02-15T19:05:46.712Z,22.90
2023-02-15T19:08:24.416Z,22.37
2023-02-15T19:10:51.808Z,23.50
2023-02-15T19:13:18.256Z,23.65
2023-02-15T19:15:44.925Z,23.30
2023-02-15T19:18:11.336Z,23.13
2023-02-15T19:20:41.463Z,23.53
2023-02-15T19:23:15.741Z,22.98
2023-02-15T19:25:42.474Z,23.35
2023-02-15T19:28:16.379Z,23.85
2023-02-15T19:30:42.916Z,23.90
2023-02-15T19:33:17.034Z,23.97
2023-02-15T19:35:46.822Z,24.15
2023-02-15T19:38:20.686Z,25.45
2023-02-15T19:40:47.196Z,25.20
2023-02-15T19:43:26.808Z,23.60
2023-02-15T19:45:53.758Z,24.03
2023-02-15T19:48:20.357Z,24.15
2023-02-15T19:50:48.063Z,24.10
2023-02-15T19:53:28.074Z,24.83
2023-02-15T19:55:54.751Z,23.50
2023-02-15T19:58:21.882Z,24.23
2023-02-15T20:00:50.520Z,24.48
2023-02-15T20:03:17.156Z,24.42
2023-02-15T20:05:44.469Z,25.05
2023-02-15T20:08:19.512Z,24.80
2023-02-15T20:10:46.201Z,25.93
2023-02-15T20:13:22.963Z,25.60
2023-02-15T20:15:50.821Z,25.85
2023-02-15T20:18:20.389Z,25.75
2023-02-15T20:20:51.719Z,26.27
2023-02-15T20:23:20.528Z,26.77
2023-02-15T20:25:47.754Z,27.17
2023-02-15T20:28:18.034Z,27.00
2023-02-15T20:30:44.850Z,26.60
2023-02-15T20:33:11.825Z,26.13
2023-02-15T20:35:38.638Z,26.43
2023-02-15T20:38:05.894Z,25.70
2023-02-15T20:40:35.236Z,26.25
2023-02-15T20:43:01.938Z,26.08
2023-02-15T20:45:32.973Z,26.42
2023-02-15T20:48:01.436Z,26.80
2023-02-15T20:50:35.343Z,26.30
2023-02-15T20:53:04.587Z,26.95
2023-02-15T20:55:32.090Z,26.15
2023-02-15T20:57:59.232Z,26.17
2023-02-15T21:00:31.296Z,26.60
2023-02-15T21:02:59.941Z,28.13
2023-02-15T21:05:30.404Z,27.00
2023-02-15T21:07:57.384Z,26.25
2023-02-15T21:10:26.576Z,27.88
2023-02-15T21:12:53.900Z,28.13
2023-02-15T21:15:35.146Z,26.38
2023-02-15T21:18:12.393Z,27.08
2023-02-15T21:20:43.853Z,28.35
2023-02-15T21:23:13.697Z,28.48
2023-02-15T21:25:40.373Z,28.37
2023-02-15T21:28:08.485Z,29.25
2023-02-15T21:30:34.937Z,28.85
2023-02-15T21:33:01.428Z,29.60
2023-02-15T21:35:28.535Z,28.05
2023-02-15T21:37:56.164Z,26.93
2023-02-15T21:40:31.018Z,26.60
2023-02-15T21:43:16.676Z,27.33
2023-02-15T21:46:01.953Z,28.02
2023-02-15T21:48:28.626Z,28.33
2023-02-15T21:51:13.650Z,27.10
2023-02-15T21:53:43.066Z,28.38
2023-02-15T21:56:13.664Z,27.67
2023-02-15T21:58:40.277Z,29.73
2023-02-15T22:01:07.362Z,27.90
2023-02-15T22:03:37.773Z,28.70
2023-02-15T22:06:04.905Z,27.35
2023-02-15T22:08:31.601Z,27.83
2023-02-15T22:10:58.223Z,28.05
2023-02-15T22:13:32.050Z,28.52
2023-02-15T22:15:58.843Z,27.43
2023-02-15T22:18:33.606Z,27.88
2023-02-15T22:21:01.605Z,27.92
2023-02-15T22:23:28.178Z,27.08
2023-02-15T22:26:02.646Z,27.80
2023-02-15T22:28:33.767Z,27.67
2023-02-15T22:31:00.620Z,28.80
2023-02-15T22:33:29.752Z,27.92
2023-02-15T22:35:56.620Z,27.27
2023-02-15T22:38:23.409Z,28.17
2023-02-15T22:40:53.463Z,27.77
2023-02-15T22:43:34.058Z,28.85
2023-02-15T22:46:03.648Z,28.00
2023-02-15T22:48:30.308Z,29.13
2023-02-15T22:50:56.982Z,27.38
2023-02-15T22:53:23.357Z,28.27
2023-02-15T22:55:50.361Z,29.33
2023-02-15T22:58:24.716Z,29.15
2023-02-15T23:00:51.353Z,28.10
2023-02-15T23:03:24.136Z,27.08
2023-02-15T23:05:51.467Z,28.13
2023-02-15T23:08:17.929Z,27.58
2023-02-15T23:10:46.628Z,27.83
2023-02-15T23:13:25.745Z,27.77
2023-02-15T23:15:55.650Z,28.65
2023-02-15T23:18:37.638Z,28.20
2023-02-15T23:21:16.257Z,27.23
2023-02-15T23:23:45.614Z,27.35
2023-02-15T23:26:23.063Z,27.88
2023-02-15T23:28:51.031Z,28.33
2023-02-15T23:31:27.385Z,28.90
2023-02-15T23:33:54.506Z,27.50
2023-02-15T23:36:38.728Z,28.75
2023-02-15T23:39:36.094Z,29.50
2023-02-15T23:42:06.998Z,29.05
2023-02-15T23:44:33.995Z,28.93
2023-02-15T23:47:00.701Z,29.33
2023-02-15T23:49:27.082Z,28.25
2023-02-15T23:51:55.583Z,29.23
2023-02-15T23:54:26.015Z,29.67
2023-02-15T23:56:54.906Z,28.87
2023-02-15T23:59:26.863Z,28.75
